sensor_id;sensor_type;location;lat;lon;timestamp;pressure;altitude;pressure_sealevel;temperature;humidity
18985;BME280;9626;52.552;13.436;2023-03-03T00:01:18;101718.78;;;-0.33;100.00
18985;BME280;9626;52.552;13.436;2023-03-03T00:03:44;101717.09;;;-0.32;100.00
18985;BME280;9626;52.552;13.436;2023-03-03T00:06:12;101715.31;;;-0.33;100.00
18985;BME280;9626;52.552;13.436;2023-03-03T00:08:57;101717.91;;;-0.33;100.00
18985;BME280;9626;52.552;13.436;2023-03-03T00:11:41;101717.91;;;-0.33;100.00
18985;BME280;9626;52.552;13.436;2023-03-03T00:14:31;101715.84;;;-0.20;100.00
18985;BME280;9626;52.552;13.436;2023-03-03T00:20:26;101715.47;;;-0.29;100.00
18985;BME280;9626;52.552;13.436;2023-03-03T00:22:54;101706.91;;;-0.26;100.00
18985;BME280;9626;52.552;13.436;2023-03-03T00:25:43;101696.69;;;-0.22;100.00
18985;BME280;9626;52.552;13.436;2023-03-03T00:28:19;101697.53;;;-0.23;100.00
18985;BME280;9626;52.552;13.436;2023-03-03T00:31:17;101702.47;;;-0.29;100.00
18985;BME280;9626;52.552;13.436;2023-03-03T00:33:54;101705.97;;;-0.28;100.00
18985;BME280;9626;52.552;13.436;2023-03-03T00:36:40;101703.06;;;-0.36;100.00
18985;BME280;9626;52.552;13.436;2023-03-03T00:42:18;101692.63;;;-0.36;100.00
18985;BME280;9626;52.552;13.436;2023-03-03T00:44:57;101690.91;;;-0.36;100.00
18985;BME280;9626;52.552;13.436;2023-03-03T00:47:42;101693.91;;;-0.26;100.00
18985;BME280;9626;52.552;13.436;2023-03-03T00:50:34;101693.19;;;-0.22;100.00
18985;BME280;9626;52.552;13.436;2023-03-03T00:53:20;101690.75;;;-0.19;100.00
18985;BME280;9626;52.552;13.436;2023-03-03T00:56:05;101687.59;;;-0.31;100.00
18985;BME280;9626;52.552;13.436;2023-03-03T00:58:31;101687.31;;;-0.39;100.00
18985;BME280;9626;52.552;13.436;2023-03-03T01:01:17;101681.47;;;-0.33;100.00
18985;BME280;9626;52.552;13.436;2023-03-03T01:04:01;101665.69;;;-0.38;100.00
18985;BME280;9626;52.552;13.436;2023-03-03T01:06:27;101663.06;;;-0.38;100.00
18985;BME280;9626;52.552;13.436;2023-03-03T01:08:53;101678.69;;;-0.38;100.00
18985;BME280;9626;52.552;13.436;2023-03-03T01:11:40;101678.38;;;-0.46;100.00
18985;BME280;9626;52.552;13.436;2023-03-03T01:14:25;101683.25;;;-0.32;100.00
18985;BME280;9626;52.552;13.436;2023-03-03T01:17:10;101682.50;;;-0.30;100.00
18985;BME280;9626;52.552;13.436;2023-03-03T01:19:54;101674.59;;;-0.31;100.00
18985;BME280;9626;52.552;13.436;2023-03-03T01:22:40;101669.97;;;-0.18;100.00
18985;BME280;9626;52.552;13.436;2023-03-03T01:25:24;101666.06;;;-0.27;100.00
18985;BME280;9626;52.552;13.436;2023-03-03T01:28:09;101670.41;;;-0.28;100.00
18985;BME280;9626;52.552;13.436;2023-03-03T01:30:54;101660.09;;;-0.25;100.00
18985;BME280;9626;52.552;13.436;2023-03-03T01:33:38;101654.19;;;-0.21;100.00
18985;BME280;9626;52.552;13.436;2023-03-03T01:36:27;101657.50;;;-0.25;100.00
18985;BME280;9626;52.552;13.436;2023-03-03T01:39:11;101650.59;;;-0.24;100.00
18985;BME280;9626;52.552;13.436;2023-03-03T01:41:56;101649.41;;;-0.32;100.00
18985;BME280;9626;52.552;13.436;2023-03-03T01:44:40;101647.84;;;-0.27;100.00
18985;BME280;9626;52.552;13.436;2023-03-03T01:47:28;101644.25;;;-0.31;100.00
18985;BME280;9626;52.552;13.436;2023-03-03T01:53:19;101634.94;;;-0.47;100.00
18985;BME280;9626;52.552;13.436;2023-03-03T01:56:06;101645.03;;;-0.33;100.00
18985;BME280;9626;52.552;13.436;2023-03-03T02:01:40;101637.38;;;-0.29;100.00
18985;BME280;9626;52.552;13.436;2023-03-03T02:04:25;101640.34;;;-0.42;100.00
18985;BME280;9626;52.552;13.436;2023-03-03T02:07:10;101639.31;;;-0.46;100.00
18985;BME280;9626;52.552;13.436;2023-03-03T02:10:03;101657.34;;;-0.29;100.00
18985;BME280;9626;52.552;13.436;2023-03-03T02:12:52;101656.19;;;-0.15;100.00
18985;BME280;9626;52.552;13.436;2023-03-03T02:15:37;101645.63;;;-0.18;100.00
18985;BME280;9626;52.552;13.436;2023-03-03T02:18:22;101646.75;;;-0.34;100.00
18985;BME280;9626;52.552;13.436;2023-03-03T02:21:15;101657.34;;;-0.29;100.00
18985;BME280;9626;52.552;13.436;2023-03-03T02:27:07;101652.66;;;-0.38;100.00
18985;BME280;9626;52.552;13.436;2023-03-03T02:29:52;101658.84;;;-0.35;100.00
18985;BME280;9626;52.552;13.436;2023-03-03T02:32:37;101658.91;;;-0.33;100.00
18985;BME280;9626;52.552;13.436;2023-03-03T02:35:27;101653.16;;;-0.47;100.00
18985;BME280;9626;52.552;13.436;2023-03-03T02:44:17;101656.56;;;-0.27;100.00
18985;BME280;9626;52.552;13.436;2023-03-03T02:47:02;101655.94;;;-0.21;100.00
18985;BME280;9626;52.552;13.436;2023-03-03T02:49:46;101652.00;;;-0.32;100.00
18985;BME280;9626;52.552;13.436;2023-03-03T02:52:31;101657.34;;;-0.51;100.00
18985;BME280;9626;52.552;13.436;2023-03-03T02:55:15;101649.84;;;-0.43;100.00
18985;BME280;9626;52.552;13.436;2023-03-03T02:58:00;101653.97;;;-0.48;100.00
18985;BME280;9626;52.552;13.436;2023-03-03T03:00:44;101652.13;;;-0.51;100.00
18985;BME280;9626;52.552;13.436;2023-03-03T03:03:30;101649.28;;;-0.57;100.00
18985;BME280;9626;52.552;13.436;2023-03-03T03:06:15;101653.03;;;-0.50;100.00
18985;BME280;9626;52.552;13.436;2023-03-03T03:09:02;101661.16;;;-0.42;100.00
18985;BME280;9626;52.552;13.436;2023-03-03T03:11:46;101658.03;;;-0.33;100.00
18985;BME280;9626;52.552;13.436;2023-03-03T03:14:30;101664.97;;;-0.34;100.00
18985;BME280;9626;52.552;13.436;2023-03-03T03:17:15;101664.81;;;-0.37;100.00
18985;BME280;9626;52.552;13.436;2023-03-03T03:20:00;101683.91;;;-0.38;100.00
18985;BME280;9626;52.552;13.436;2023-03-03T03:22:44;101687.00;;;-0.47;100.00
18985;BME280;9626;52.552;13.436;2023-03-03T03:25:28;101689.34;;;-0.53;100.00
18985;BME280;9626;52.552;13.436;2023-03-03T03:28:15;101685.13;;;-0.49;100.00
18985;BME280;9626;52.552;13.436;2023-03-03T03:30:59;101682.75;;;-0.45;100.00
18985;BME280;9626;52.552;13.436;2023-03-03T03:33:44;101689.72;;;-0.44;100.00
18985;BME280;9626;52.552;13.436;2023-03-03T03:36:29;101690.28;;;-0.51;100.00
18985;BME280;9626;52.552;13.436;2023-03-03T03:39:14;101684.16;;;-0.53;100.00
18985;BME280;9626;52.552;13.436;2023-03-03T03:41:59;101670.94;;;-0.58;100.00
18985;BME280;9626;52.552;13.436;2023-03-03T03:44:25;101673.47;;;-0.59;100.00
18985;BME280;9626;52.552;13.436;2023-03-03T03:47:09;101672.59;;;-0.60;100.00
18985;BME280;9626;52.552;13.436;2023-03-03T03:49:54;101680.19;;;-0.64;100.00
18985;BME280;9626;52.552;13.436;2023-03-03T03:52:38;101671.56;;;-0.63;100.00
18985;BME280;9626;52.552;13.436;2023-03-03T03:55:23;101666.38;;;-0.63;100.00
18985;BME280;9626;52.552;13.436;2023-03-03T03:58:11;101665.09;;;-0.73;100.00
18985;BME280;9626;52.552;13.436;2023-03-03T04:01:01;101664.81;;;-1.00;100.00
18985;BME280;9626;52.552;13.436;2023-03-03T04:03:46;101662.22;;;-1.20;100.00
18985;BME280;9626;52.552;13.436;2023-03-03T04:06:32;101655.63;;;-1.12;100.00
18985;BME280;9626;52.552;13.436;2023-03-03T04:09:16;101655.78;;;-1.09;100.00
18985;BME280;9626;52.552;13.436;2023-03-03T04:12:02;101647.94;;;-1.10;100.00
18985;BME280;9626;52.552;13.436;2023-03-03T04:14:47;101651.34;;;-1.11;100.00
18985;BME280;9626;52.552;13.436;2023-03-03T04:17:31;101649.78;;;-1.27;100.00
18985;BME280;9626;52.552;13.436;2023-03-03T04:20:16;101649.66;;;-1.30;100.00
18985;BME280;9626;52.552;13.436;2023-03-03T04:23:01;101646.50;;;-1.23;100.00
18985;BME280;9626;52.552;13.436;2023-03-03T04:25:49;101649.22;;;-1.00;100.00
18985;BME280;9626;52.552;13.436;2023-03-03T04:28:33;101647.41;;;-1.02;100.00
18985;BME280;9626;52.552;13.436;2023-03-03T04:31:18;101645.09;;;-1.15;100.00
18985;BME280;9626;52.552;13.436;2023-03-03T04:34:04;101649.50;;;-1.14;100.00
18985;BME280;9626;52.552;13.436;2023-03-03T04:36:49;101652.63;;;-1.02;100.00
18985;BME280;9626;52.552;13.436;2023-03-03T04:39:33;101642.50;;;-0.95;100.00
18985;BME280;9626;52.552;13.436;2023-03-03T04:42:18;101642.63;;;-1.12;100.00
18985;BME280;9626;52.552;13.436;2023-03-03T04:45:03;101643.31;;;-1.16;100.00
18985;BME280;9626;52.552;13.436;2023-03-03T04:47:48;101649.78;;;-1.27;100.00
18985;BME280;9626;52.552;13.436;2023-03-03T04:50:32;101648.97;;;-1.46;100.00
18985;BME280;9626;52.552;13.436;2023-03-03T04:53:17;101651.69;;;-1.62;100.00
18985;BME280;9626;52.552;13.436;2023-03-03T04:56:02;101659.13;;;-1.70;100.00
18985;BME280;9626;52.552;13.436;2023-03-03T04:58:46;101654.41;;;-1.79;100.00
18985;BME280;9626;52.552;13.436;2023-03-03T05:01:31;101649.19;;;-1.79;100.00
18985;BME280;9626;52.552;13.436;2023-03-03T05:04:16;101649.19;;;-1.79;100.00
18985;BME280;9626;52.552;13.436;2023-03-03T05:07:01;101637.69;;;-1.66;100.00
18985;BME280;9626;52.552;13.436;2023-03-03T05:09:31;101648.38;;;-1.78;100.00
18985;BME280;9626;52.552;13.436;2023-03-03T05:12:15;101642.25;;;-1.80;100.00
18985;BME280;9626;52.552;13.436;2023-03-03T05:15:00;101644.91;;;-1.78;100.00
18985;BME280;9626;52.552;13.436;2023-03-03T05:17:44;101640.72;;;-1.75;100.00
18985;BME280;9626;52.552;13.436;2023-03-03T05:20:28;101639.44;;;-1.84;100.00
18985;BME280;9626;52.552;13.436;2023-03-03T05:23:13;101636.50;;;-1.92;100.00
18985;BME280;9626;52.552;13.436;2023-03-03T05:25:57;101644.97;;;-1.96;100.00
18985;BME280;9626;52.552;13.436;2023-03-03T05:28:38;101650.28;;;-1.93;100.00
18985;BME280;9626;52.552;13.436;2023-03-03T05:31:22;101648.13;;;-1.84;100.00
18985;BME280;9626;52.552;13.436;2023-03-03T05:34:08;101656.41;;;-1.73;100.00
18985;BME280;9626;52.552;13.436;2023-03-03T05:36:53;101660.88;;;-1.51;100.00
18985;BME280;9626;52.552;13.436;2023-03-03T05:39:19;101660.31;;;-1.44;100.00
18985;BME280;9626;52.552;13.436;2023-03-03T05:42:04;101663.47;;;-1.31;100.00
18985;BME280;9626;52.552;13.436;2023-03-03T05:44:48;101671.53;;;-1.45;100.00
18985;BME280;9626;52.552;13.436;2023-03-03T05:47:33;101671.00;;;-1.38;100.00
18985;BME280;9626;52.552;13.436;2023-03-03T05:50:19;101671.81;;;-1.39;100.00
18985;BME280;9626;52.552;13.436;2023-03-03T05:53:03;101675.41;;;-1.55;100.00
18985;BME280;9626;52.552;13.436;2023-03-03T05:55:48;101682.09;;;-1.60;100.00
18985;BME280;9626;52.552;13.436;2023-03-03T05:58:32;101667.44;;;-1.77;100.00
18985;BME280;9626;52.552;13.436;2023-03-03T06:01:17;101672.38;;;-1.83;100.00
18985;BME280;9626;52.552;13.436;2023-03-03T06:03:43;101675.03;;;-1.82;100.00
18985;BME280;9626;52.552;13.436;2023-03-03T06:06:27;101680.09;;;-1.85;100.00
18985;BME280;9626;52.552;13.436;2023-03-03T06:09:12;101667.91;;;-1.86;100.00
18985;BME280;9626;52.552;13.436;2023-03-03T06:11:56;101668.06;;;-1.83;100.00
18985;BME280;9626;52.552;13.436;2023-03-03T06:14:42;101680.78;;;-1.70;100.00
18985;BME280;9626;52.552;13.436;2023-03-03T06:17:27;101674.53;;;-1.55;100.00
18985;BME280;9626;52.552;13.436;2023-03-03T06:20:11;101673.44;;;-1.41;100.00
18985;BME280;9626;52.552;13.436;2023-03-03T06:22:56;101681.94;;;-1.25;100.00
18985;BME280;9626;52.552;13.436;2023-03-03T06:25:40;101687.66;;;-1.32;100.00
18985;BME280;9626;52.552;13.436;2023-03-03T06:28:25;101688.41;;;-1.55;100.00
18985;BME280;9626;52.552;13.436;2023-03-03T06:31:10;101684.94;;;-1.55;100.00
18985;BME280;9626;52.552;13.436;2023-03-03T06:33:36;101683.69;;;-1.44;100.00
18985;BME280;9626;52.552;13.436;2023-03-03T06:36:21;101688.63;;;-1.30;100.00
18985;BME280;9626;52.552;13.436;2023-03-03T06:39:06;101688.06;;;-1.23;100.00
18985;BME280;9626;52.552;13.436;2023-03-03T06:41:51;101690.97;;;-1.17;100.00
18985;BME280;9626;52.552;13.436;2023-03-03T06:44:35;101688.78;;;-1.08;100.00
18985;BME280;9626;52.552;13.436;2023-03-03T06:47:02;101698.53;;;-1.02;100.00
18985;BME280;9626;52.552;13.436;2023-03-03T06:49:46;101695.31;;;-1.16;100.00
18985;BME280;9626;52.552;13.436;2023-03-03T06:52:31;101699.69;;;-1.15;100.00
18985;BME280;9626;52.552;13.436;2023-03-03T06:55:22;101707.22;;;-1.02;100.00
18985;BME280;9626;52.552;13.436;2023-03-03T06:58:17;101714.47;;;-1.14;100.00
18985;BME280;9626;52.552;13.436;2023-03-03T07:01:14;101712.41;;;-1.41;100.00
18985;BME280;9626;52.552;13.436;2023-03-03T07:03:59;101710.41;;;-1.66;100.00
18985;BME280;9626;52.552;13.436;2023-03-03T07:06:44;101715.22;;;-1.74;100.00
18985;BME280;9626;52.552;13.436;2023-03-03T07:09:29;101720.56;;;-1.71;100.00
18985;BME280;9626;52.552;13.436;2023-03-03T07:12:20;101727.16;;;-1.59;100.00
18985;BME280;9626;52.552;13.436;2023-03-03T07:15:14;101726.50;;;-1.55;100.00
18985;BME280;9626;52.552;13.436;2023-03-03T07:18:01;101739.84;;;-1.65;100.00
18985;BME280;9626;52.552;13.436;2023-03-03T07:20:48;101735.19;;;-1.73;100.00
18985;BME280;9626;52.552;13.436;2023-03-03T07:23:37;101746.69;;;-1.85;100.00
18985;BME280;9626;52.552;13.436;2023-03-03T07:26:30;101738.69;;;-1.90;100.00
18985;BME280;9626;52.552;13.436;2023-03-03T07:29:26;101739.28;;;-1.78;100.00
18985;BME280;9626;52.552;13.436;2023-03-03T07:32:50;101736.16;;;-1.71;100.00
18985;BME280;9626;52.552;13.436;2023-03-03T07:35:42;101740.84;;;-1.63;100.00
18985;BME280;9626;52.552;13.436;2023-03-03T07:38:39;101753.66;;;-1.48;100.00
18985;BME280;9626;52.552;13.436;2023-03-03T07:41:26;101746.50;;;-1.34;100.00
18985;BME280;9626;52.552;13.436;2023-03-03T07:44:20;101748.53;;;-1.27;100.00
18985;BME280;9626;52.552;13.436;2023-03-03T07:47:18;101752.72;;;-1.31;100.00
18985;BME280;9626;52.552;13.436;2023-03-03T07:50:13;101758.50;;;-1.37;100.00
18985;BME280;9626;52.552;13.436;2023-03-03T07:53:00;101751.94;;;-1.48;100.00
18985;BME280;9626;52.552;13.436;2023-03-03T07:55:45;101753.34;;;-1.55;100.00
18985;BME280;9626;52.552;13.436;2023-03-03T07:58:37;101757.94;;;-1.49;100.00
18985;BME280;9626;52.552;13.436;2023-03-03T08:01:40;101739.38;;;-1.39;100.00
18985;BME280;9626;52.552;13.436;2023-03-03T08:04:41;101752.78;;;-1.67;100.00
18985;BME280;9626;52.552;13.436;2023-03-03T08:07:27;101759.28;;;-1.57;100.00
18985;BME280;9626;52.552;13.436;2023-03-03T08:10:46;101758.84;;;-1.66;100.00
18985;BME280;9626;52.552;13.436;2023-03-03T08:16:33;101756.59;;;-1.41;100.00
18985;BME280;9626;52.552;13.436;2023-03-03T08:19:19;101754.09;;;-1.57;100.00
18985;BME280;9626;52.552;13.436;2023-03-03T08:25:09;101744.84;;;-1.32;100.00
18985;BME280;9626;52.552;13.436;2023-03-03T08:27:53;101747.16;;;-1.19;100.00
18985;BME280;9626;52.552;13.436;2023-03-03T08:30:38;101751.25;;;-1.24;100.00
18985;BME280;9626;52.552;13.436;2023-03-03T08:33:23;101752.84;;;-1.28;100.00
18985;BME280;9626;52.552;13.436;2023-03-03T08:36:08;101752.50;;;-1.16;100.00
18985;BME280;9626;52.552;13.436;2023-03-03T08:38:52;101764.44;;;-1.02;100.00
18985;BME280;9626;52.552;13.436;2023-03-03T08:41:38;101758.91;;;-0.90;100.00
18985;BME280;9626;52.552;13.436;2023-03-03T08:44:23;101756.22;;;-0.91;100.00
18985;BME280;9626;52.552;13.436;2023-03-03T08:47:08;101760.19;;;-0.99;100.00
18985;BME280;9626;52.552;13.436;2023-03-03T08:49:52;101758.81;;;-1.11;100.00
18985;BME280;9626;52.552;13.436;2023-03-03T08:52:37;101751.75;;;-1.13;100.00
18985;BME280;9626;52.552;13.436;2023-03-03T08:55:21;101762.91;;;-1.16;100.00
18985;BME280;9626;52.552;13.436;2023-03-03T08:58:06;101756.63;;;-1.21;100.00
18985;BME280;9626;52.552;13.436;2023-03-03T09:00:51;101756.06;;;-1.14;100.00
18985;BME280;9626;52.552;13.436;2023-03-03T09:03:36;101764.56;;;-1.18;100.00
18985;BME280;9626;52.552;13.436;2023-03-03T09:06:20;101750.47;;;-1.04;100.00
18985;BME280;9626;52.552;13.436;2023-03-03T09:09:05;101750.69;;;-0.99;100.00
18985;BME280;9626;52.552;13.436;2023-03-03T09:11:53;101749.00;;;-0.97;100.00
18985;BME280;9626;52.552;13.436;2023-03-03T09:14:38;101747.44;;;-0.93;100.00
18985;BME280;9626;52.552;13.436;2023-03-03T09:17:34;101749.44;;;-0.88;100.00
18985;BME280;9626;52.552;13.436;2023-03-03T09:26:21;101740.31;;;-0.58;100.00
18985;BME280;9626;52.552;13.436;2023-03-03T09:32:05;101746.00;;;-0.87;100.00
18985;BME280;9626;52.552;13.436;2023-03-03T09:34:50;101746.50;;;-0.76;100.00
18985;BME280;9626;52.552;13.436;2023-03-03T09:37:36;101748.97;;;-0.58;100.00
18985;BME280;9626;52.552;13.436;2023-03-03T09:40:46;101753.84;;;-0.46;100.00
18985;BME280;9626;52.552;13.436;2023-03-03T09:49:18;101745.84;;;-0.29;100.00
18985;BME280;9626;52.552;13.436;2023-03-03T09:55:26;101747.75;;;-0.25;100.00
18985;BME280;9626;52.552;13.436;2023-03-03T10:04:12;101750.97;;;-0.10;100.00
18985;BME280;9626;52.552;13.436;2023-03-03T10:19:38;101751.03;;;0.58;100.00
18985;BME280;9626;52.552;13.436;2023-03-03T10:40:12;101744.88;;;0.56;100.00
18985;BME280;9626;52.552;13.436;2023-03-03T10:52:25;101752.63;;;0.77;100.00
18985;BME280;9626;52.552;13.436;2023-03-03T11:16:18;101741.56;;;0.84;100.00
18985;BME280;9626;52.552;13.436;2023-03-03T11:25:49;101737.28;;;0.85;100.00
18985;BME280;9626;52.552;13.436;2023-03-03T11:31:47;101745.34;;;1.17;100.00
18985;BME280;9626;52.552;13.436;2023-03-03T11:40:51;101729.59;;;1.38;100.00
18985;BME280;9626;52.552;13.436;2023-03-03T11:43:44;101733.75;;;1.33;100.00
18985;BME280;9626;52.552;13.436;2023-03-03T11:46:37;101736.25;;;1.30;100.00
18985;BME280;9626;52.552;13.436;2023-03-03T11:49:44;101739.66;;;1.27;100.00
18985;BME280;9626;52.552;13.436;2023-03-03T11:55:36;101723.81;;;1.23;100.00
18985;BME280;9626;52.552;13.436;2023-03-03T12:04:12;101715.31;;;1.03;100.00
18985;BME280;9626;52.552;13.436;2023-03-03T12:10:31;101704.75;;;1.25;100.00
18985;BME280;9626;52.552;13.436;2023-03-03T12:22:31;101687.81;;;1.12;100.00
18985;BME280;9626;52.552;13.436;2023-03-03T12:33:54;101668.59;;;1.36;100.00
18985;BME280;9626;52.552;13.436;2023-03-03T12:40:02;101679.41;;;1.47;100.00
18985;BME280;9626;52.552;13.436;2023-03-03T12:46:00;101672.16;;;1.64;100.00
18985;BME280;9626;52.552;13.436;2023-03-03T12:48:49;101662.97;;;1.77;100.00
18985;BME280;9626;52.552;13.436;2023-03-03T12:57:57;101660.41;;;1.51;100.00
18985;BME280;9626;52.552;13.436;2023-03-03T13:12:33;101645.81;;;1.85;100.00
18985;BME280;9626;52.552;13.436;2023-03-03T13:15:29;101638.94;;;1.87;100.00
18985;BME280;9626;52.552;13.436;2023-03-03T13:18:47;101648.19;;;2.05;100.00
18985;BME280;9626;52.552;13.436;2023-03-03T13:21:48;101642.88;;;2.03;100.00
18985;BME280;9626;52.552;13.436;2023-03-03T13:27:43;101638.19;;;1.91;100.00
18985;BME280;9626;52.552;13.436;2023-03-03T13:30:38;101633.19;;;1.72;100.00
18985;BME280;9626;52.552;13.436;2023-03-03T13:33:44;101628.94;;;1.74;100.00
18985;BME280;9626;52.552;13.436;2023-03-03T13:36:42;101627.16;;;1.73;100.00
18985;BME280;9626;52.552;13.436;2023-03-03T13:39:37;101629.84;;;1.76;100.00
18985;BME280;9626;52.552;13.436;2023-03-03T13:42:37;101625.69;;;1.82;100.00
18985;BME280;9626;52.552;13.436;2023-03-03T13:52:11;101613.69;;;1.88;100.00
18985;BME280;9626;52.552;13.436;2023-03-03T14:01:14;101620.28;;;2.03;100.00
18985;BME280;9626;52.552;13.436;2023-03-03T14:06:54;101611.22;;;2.21;100.00
18985;BME280;9626;52.552;13.436;2023-03-03T14:12:46;101605.03;;;2.19;100.00
18985;BME280;9626;52.552;13.436;2023-03-03T14:15:55;101605.91;;;2.19;100.00
18985;BME280;9626;52.552;13.436;2023-03-03T14:18:56;101596.44;;;2.23;100.00
18985;BME280;9626;52.552;13.436;2023-03-03T14:25:09;101593.97;;;2.28;100.00
18985;BME280;9626;52.552;13.436;2023-03-03T14:28:01;101595.47;;;2.19;100.00
18985;BME280;9626;52.552;13.436;2023-03-03T14:30:46;101583.03;;;2.11;100.00
18985;BME280;9626;52.552;13.436;2023-03-03T14:33:32;101577.22;;;2.21;100.00
18985;BME280;9626;52.552;13.436;2023-03-03T14:36:25;101584.81;;;2.12;100.00
18985;BME280;9626;52.552;13.436;2023-03-03T14:39:32;101584.00;;;2.14;100.00
18985;BME280;9626;52.552;13.436;2023-03-03T14:42:31;101579.25;;;2.31;100.00
18985;BME280;9626;52.552;13.436;2023-03-03T14:45:33;101575.63;;;2.26;100.00
18985;BME280;9626;52.552;13.436;2023-03-03T14:48:21;101564.09;;;2.19;100.00
18985;BME280;9626;52.552;13.436;2023-03-03T14:54:24;101556.78;;;2.06;100.00
18985;BME280;9626;52.552;13.436;2023-03-03T14:57:40;101548.22;;;2.12;100.00
18985;BME280;9626;52.552;13.436;2023-03-03T15:00:32;101547.53;;;2.19;100.00
18985;BME280;9626;52.552;13.436;2023-03-03T15:03:21;101555.56;;;2.25;100.00
18985;BME280;9626;52.552;13.436;2023-03-03T15:05:50;101561.63;;;2.24;100.00
18985;BME280;9626;52.552;13.436;2023-03-03T15:08:30;101551.19;;;2.24;100.00
18985;BME280;9626;52.552;13.436;2023-03-03T15:13:42;101546.88;;;2.26;100.00
18985;BME280;9626;52.552;13.436;2023-03-03T15:16:21;101539.94;;;2.27;100.00
18985;BME280;9626;52.552;13.436;2023-03-03T15:19:16;101541.88;;;2.34;100.00
18985;BME280;9626;52.552;13.436;2023-03-03T15:21:54;101540.59;;;2.51;100.00
18985;BME280;9626;52.552;13.436;2023-03-03T15:27:09;101536.53;;;2.63;100.00
18985;BME280;9626;52.552;13.436;2023-03-03T15:29:54;101530.53;;;2.67;100.00
18985;BME280;9626;52.552;13.436;2023-03-03T15:32:51;101530.47;;;2.64;100.00
18985;BME280;9626;52.552;13.436;2023-03-03T15:35:25;101533.13;;;2.65;100.00
18985;BME280;9626;52.552;13.436;2023-03-03T15:37:59;101526.19;;;2.66;100.00
18985;BME280;9626;52.552;13.436;2023-03-03T15:43:19;101527.75;;;2.59;100.00
18985;BME280;9626;52.552;13.436;2023-03-03T15:48:52;101516.78;;;2.41;100.00
18985;BME280;9626;52.552;13.436;2023-03-03T15:56:51;101517.56;;;2.38;100.00
18985;BME280;9626;52.552;13.436;2023-03-03T16:05:11;101508.41;;;2.54;100.00
18985;BME280;9626;52.552;13.436;2023-03-03T16:08:01;101504.88;;;2.52;100.00
18985;BME280;9626;52.552;13.436;2023-03-03T16:10:49;101505.84;;;2.56;100.00
18985;BME280;9626;52.552;13.436;2023-03-03T16:21:33;101497.03;;;2.52;100.00
18985;BME280;9626;52.552;13.436;2023-03-03T16:24:22;101502.41;;;2.57;100.00
18985;BME280;9626;52.552;13.436;2023-03-03T16:27:05;101494.59;;;2.58;100.00
18985;BME280;9626;52.552;13.436;2023-03-03T16:29:51;101500.66;;;2.57;100.00
18985;BME280;9626;52.552;13.436;2023-03-03T16:32:47;101505.03;;;2.58;100.00
18985;BME280;9626;52.552;13.436;2023-03-03T16:35:25;101498.84;;;2.54;100.00
18985;BME280;9626;52.552;13.436;2023-03-03T16:38:00;101498.09;;;2.60;100.00
18985;BME280;9626;52.552;13.436;2023-03-03T16:40:44;101497.13;;;2.55;100.00
18985;BME280;9626;52.552;13.436;2023-03-03T16:52:14;101485.78;;;2.56;100.00
18985;BME280;9626;52.552;13.436;2023-03-03T16:54:56;101482.09;;;2.48;100.00
18985;BME280;9626;52.552;13.436;2023-03-03T17:00:08;101489.91;;;2.46;100.00
18985;BME280;9626;52.552;13.436;2023-03-03T17:02:40;101492.72;;;2.54;100.00
18985;BME280;9626;52.552;13.436;2023-03-03T17:05:19;101499.81;;;2.58;100.00
18985;BME280;9626;52.552;13.436;2023-03-03T17:08:15;101495.41;;;2.57;100.00
18985;BME280;9626;52.552;13.436;2023-03-03T17:10:55;101492.59;;;2.49;100.00
18985;BME280;9626;52.552;13.436;2023-03-03T17:16:33;101483.81;;;2.46;100.00
18985;BME280;9626;52.552;13.436;2023-03-03T17:19:16;101485.59;;;2.47;100.00
18985;BME280;9626;52.552;13.436;2023-03-03T17:30:26;101483.72;;;2.43;100.00
18985;BME280;9626;52.552;13.436;2023-03-03T17:38:57;101496.13;;;2.50;100.00
18985;BME280;9626;52.552;13.436;2023-03-03T18:01:20;101482.81;;;2.76;100.00
18985;BME280;9626;52.552;13.436;2023-03-03T18:14:50;101475.03;;;2.79;100.00
18985;BME280;9626;52.552;13.436;2023-03-03T18:17:42;101468.97;;;2.80;100.00
18985;BME280;9626;52.552;13.436;2023-03-03T18:20:41;101470.78;;;2.82;100.00
18985;BME280;9626;52.552;13.436;2023-03-03T18:23:39;101472.41;;;2.77;100.00
18985;BME280;9626;52.552;13.436;2023-03-03T18:26:28;101470.72;;;2.81;100.00
18985;BME280;9626;52.552;13.436;2023-03-03T18:32:01;101454.16;;;2.80;100.00
18985;BME280;9626;52.552;13.436;2023-03-03T18:34:39;101459.44;;;2.83;100.00
18985;BME280;9626;52.552;13.436;2023-03-03T18:42:40;101451.81;;;2.91;100.00
18985;BME280;9626;52.552;13.436;2023-03-03T18:50:34;101454.44;;;2.93;100.00
18985;BME280;9626;52.552;13.436;2023-03-03T18:55:44;101444.78;;;2.90;100.00
18985;BME280;9626;52.552;13.436;2023-03-03T19:03:56;101441.16;;;2.85;100.00
18985;BME280;9626;52.552;13.436;2023-03-03T19:09:01;101442.88;;;2.83;100.00
18985;BME280;9626;52.552;13.436;2023-03-03T19:11:55;101442.09;;;2.87;100.00
18985;BME280;9626;52.552;13.436;2023-03-03T19:20:07;101434.19;;;2.84;100.00
18985;BME280;9626;52.552;13.436;2023-03-03T19:23:04;101425.47;;;2.85;100.00
18985;BME280;9626;52.552;13.436;2023-03-03T19:25:31;101434.00;;;2.76;100.00
18985;BME280;9626;52.552;13.436;2023-03-03T19:28:25;101427.91;;;2.76;100.00
18985;BME280;9626;52.552;13.436;2023-03-03T19:33:46;101435.75;;;2.76;100.00
18985;BME280;9626;52.552;13.436;2023-03-03T19:45:07;101422.69;;;2.77;100.00
18985;BME280;9626;52.552;13.436;2023-03-03T19:50:44;101419.28;;;2.80;100.00
18985;BME280;9626;52.552;13.436;2023-03-03T20:06:36;101410.63;;;2.82;100.00
18985;BME280;9626;52.552;13.436;2023-03-03T20:12:32;101416.88;;;2.89;100.00
18985;BME280;9626;52.552;13.436;2023-03-03T20:15:16;101408.16;;;2.90;100.00
18985;BME280;9626;52.552;13.436;2023-03-03T20:21:06;101402.97;;;2.92;100.00
18985;BME280;9626;52.552;13.436;2023-03-03T20:36:04;101403.03;;;2.93;100.00